Flight Track Log - Related Links

Times and Time Zones

All times are in EDT time to prevent confusion due to time zone crossing. See the THY2022 flight status page for this flight to view local times or setup timezone preferences in your user account.


Time Position Orientation Groundspeed Altitude Reporting Facility
EDT Latitude Longitude Course Direction KTS MPH feet Rate Location/Type
Thu 05:25:00 PM 40.4399 30.5994 111° Southeast  Level Estimated
Thu 05:26:00 PM 40.3975 30.7350 112° Southeast  Level Estimated
Thu 05:27:00 PM 40.3549 30.8704 112° Southeast  Level Estimated
Thu 05:28:00 PM 40.3121 31.0057 112° Southeast  Level Estimated
Thu 05:29:00 PM 40.2692 31.1407 113° Southeast  Level Estimated
Thu 05:30:00 PM 40.2262 31.2757 113° Southeast  Level Estimated
Thu 05:31:00 PM 40.1830 31.4104 113° Southeast  Level Estimated
Thu 05:32:00 PM 40.1396 31.5450 113° Southeast  Level Estimated
Thu 05:33:00 PM 40.0961 31.6794 113° Southeast  Level Estimated
Thu 05:34:00 PM 40.0524 31.8136 113° Southeast  Level Estimated
Thu 05:35:00 PM 40.0085 31.9476 113° Southeast  Level Estimated
Thu 05:36:00 PM 39.9646 32.0815 113° Southeast  Level Estimated
Thu 05:37:00 PM 39.9204 32.2152 113° Southeast  Level Estimated
Thu 05:38:00 PM 39.8761 32.3488 113° Southeast  Level Estimated
Thu 05:39:00 PM 39.8317 32.4821 113° Southeast  Level Estimated
Thu 05:40:00 PM 39.7871 32.6153 114° Southeast  Level Estimated
Thu 05:41:00 PM 39.7423 32.7483 114° Southeast  Level Estimated
Thu 05:42:00 PM 39.6974 32.8812 114° Southeast  Level Estimated
Thu 05:43:00 PM 39.6523 33.0138 114° Southeast  Level Estimated
Thu 05:44:00 PM 39.6071 33.1463 114° Southeast  Level Estimated
Thu 05:45:00 PM 39.5618 33.2786 114° Southeast  Level Estimated
Thu 05:46:00 PM 39.5163 33.4108 114° Southeast  Level Estimated
Thu 05:47:00 PM 39.4706 33.5428 114° Southeast  Level Estimated
Thu 05:48:00 PM 39.4248 33.6746 114° Southeast  Level Estimated
Thu 05:49:00 PM 39.3788 33.8062 114° Southeast  Level Estimated
Thu 05:50:00 PM 39.3327 33.9377 114° Southeast  Level Estimated
Thu 05:51:00 PM 39.2865 34.0690 114° Southeast  Level Estimated
Thu 05:52:00 PM 39.2401 34.2001 115° Southeast  Level Estimated
Thu 05:53:00 PM 39.1935 34.3310 115° Southeast  Level Estimated
Thu 05:54:00 PM 39.1468 34.4618 115° Southeast  Level Estimated
Thu 05:55:00 PM 39.1000 34.5924 115° Southeast  Level Estimated
Thu 05:56:00 PM 39.0530 34.7228 115° Southeast  Level Estimated
Thu 05:57:00 PM 39.0059 34.8530 115° Southeast  Level Estimated
Thu 05:58:00 PM 38.9586 34.9831 115° Southeast  Level Estimated
Thu 05:59:00 PM 38.9112 35.1130 115° Southeast  Level Estimated
Thu 06:00:00 PM 38.8636 35.2427 115° Southeast  Level Estimated
Thu 06:01:00 PM 38.8159 35.3722 115° Southeast  Level Estimated
Thu 06:02:00 PM 38.7704 35.4954 115° Southeast  Level Estimated
Thu 06:03:00 PM 38.7704 35.4954 201° Southwest  Level Estimated
Thu 06:04:00 PM 38.7704 35.4954 201° Southwest  Level Estimated
Thu 06:05:00 PM 38.7704 35.4954 201° Southwest  Level Estimated
Thu 06:06:00 PM 38.7704 35.4954 201° Southwest  Level Estimated
Thu 06:07:00 PM 38.7704 35.4954 201° Southwest  Level Estimated
Thu 06:08:00 PM 38.7704 35.4954 201° Southwest  Level Estimated

Login

Don't have an account? Register now (free) for customized features, flight alerts, and more!